Time;durP1;ratioP1;P1;durP2;ratioP2;P2;SDS_P1;SDS_P2;PMS_P1;PMS_P2;Temp;Humidity;BMP_temperature;BMP_pressure;BME280_temperature;BME280_humidity;BME280_pressure;Samples;Min_cycle;Max_cycle;Signal;HPM_P1;HPM_P2
2022/10/27 00:01:30;;;;;;;7.63;3.60;;;;;;;15.42;82.13;101879.38;3612854;39;20363;-61
2022/10/27 00:03:55;;;;;;;10.60;4.78;;;;;;;15.38;82.20;101885.97;3608648;39;20057;-61
2022/10/27 00:06:21;;;;;;;7.95;4.53;;;;;;;15.31;81.98;101888.19;3612802;39;20047;-60
2022/10/27 00:08:50;;;;;;;8.38;3.80;;;;;;;15.20;82.16;101870.91;3612622;39;20101;-60
2022/10/27 00:11:16;;;;;;;6.95;3.50;;;;;;;15.11;82.17;101863.38;3611882;39;20051;-60
2022/10/27 00:13:42;;;;;;;9.95;5.03;;;;;;;15.16;82.77;101883.78;3611993;39;20043;-60
2022/10/27 00:16:14;;;;;;;8.35;3.67;;;;;;;14.98;82.48;101860.59;3612062;39;20054;-60
2022/10/27 00:18:42;;;;;;;11.15;5.35;;;;;;;15.05;83.01;101879.03;3612735;39;20059;-60
2022/10/27 00:21:15;;;;;;;5.93;3.30;;;;;;;14.94;83.38;101856.31;3607776;39;20150;-61
2022/10/27 00:23:41;;;;;;;13.53;6.33;;;;;;;15.09;83.98;101886.00;3610771;39;20070;-61
2022/10/27 00:26:12;;;;;;;9.35;4.47;;;;;;;15.12;83.50;101884.06;3611958;39;20049;-60
2022/10/27 00:28:38;;;;;;;17.17;12.45;;;;;;;15.14;83.91;101887.56;3612540;39;20063;-59
2022/10/27 00:31:27;;;;;;;8.38;4.80;;;;;;;15.16;83.84;101891.03;3611118;39;20063;-59
2022/10/27 00:33:52;;;;;;;7.10;3.80;;;;;;;15.17;83.17;101890.06;3611812;39;20378;-60
2022/10/27 00:36:24;;;;;;;6.53;4.30;;;;;;;14.96;82.80;101855.25;3609095;39;20057;-60
2022/10/27 00:38:58;;;;;;;9.35;4.00;;;;;;;15.18;83.74;101889.97;3609904;39;20123;-60
2022/10/27 00:41:34;;;;;;;7.57;4.28;;;;;;;15.15;84.17;101889.28;3612206;39;20058;-60
2022/10/27 00:44:26;;;;;;;5.13;2.95;;;;;;;15.20;84.46;101895.28;3611273;39;20100;-60
2022/10/27 00:46:53;;;;;;;7.18;3.20;;;;;;;15.24;84.67;101899.53;3607826;39;20351;-60
2022/10/27 00:49:28;;;;;;;5.90;2.80;;;;;;;15.24;84.50;101892.28;3611329;39;20039;-60
2022/10/27 00:52:03;;;;;;;4.25;2.50;;;;;;;15.28;84.22;101903.78;3607038;39;20405;-60
2022/10/27 00:54:38;;;;;;;7.28;2.58;;;;;;;15.32;83.92;101902.63;3612155;39;20579;-60
2022/10/27 00:57:07;;;;;;;7.95;2.45;;;;;;;15.33;84.46;101902.53;3611514;39;20087;-60
2022/10/27 00:59:37;;;;;;;4.43;2.70;;;;;;;15.33;84.22;101905.22;3611819;39;20048;-60
2022/10/27 01:02:06;;;;;;;6.38;2.78;;;;;;;15.37;84.31;101903.19;3612352;39;20067;-60
2022/10/27 01:05:16;;;;;;;6.53;2.70;;;;;;;15.39;83.56;101903.97;3611023;39;20390;-59
2022/10/27 01:07:45;;;;;;;5.00;2.63;;;;;;;15.29;83.37;101882.03;3561290;40;20093;-60
2022/10/27 01:10:13;;;;;;;10.48;2.78;;;;;;;15.45;84.21;101913.53;3599352;39;20328;-60
2022/10/27 01:12:41;;;;;;;7.32;3.00;;;;;;;15.42;83.95;101898.34;3612114;39;20057;-59
2022/10/27 01:15:09;;;;;;;7.32;3.10;;;;;;;15.49;84.01;101913.22;3602752;39;20067;-60
2022/10/27 01:18:18;;;;;;;8.23;2.97;;;;;;;15.49;83.77;101913.22;3610052;39;20095;-59
2022/10/27 01:20:55;;;;;;;5.95;2.70;;;;;;;15.52;84.10;101918.47;3610488;39;20067;-60
2022/10/27 01:23:29;;;;;;;5.20;2.28;;;;;;;15.56;83.92;101925.41;3611683;39;20361;-60
2022/10/27 01:26:18;;;;;;;7.93;2.83;;;;;;;15.60;83.99;101917.94;3609273;39;20121;-60
2022/10/27 01:29:18;;;;;;;4.68;2.28;;;;;;;15.62;84.17;101917.84;3610432;39;20119;-60
2022/10/27 01:31:46;;;;;;;8.05;3.42;;;;;;;15.64;82.99;101915.94;3609946;39;20058;-58
2022/10/27 01:34:36;;;;;;;8.07;3.63;;;;;;;15.64;82.75;101916.78;3610350;39;20058;-60
2022/10/27 01:37:22;;;;;;;6.45;3.38;;;;;;;15.66;83.59;101920.25;3611341;39;20066;-60
2022/10/27 01:40:15;;;;;;;8.60;2.90;;;;;;;15.69;82.94;101919.22;3608471;39;20051;-59
2022/10/27 01:42:58;;;;;;;5.57;3.03;;;;;;;15.70;83.40;101920.97;3606883;39;20043;-59
2022/10/27 01:45:32;;;;;;;8.80;2.90;;;;;;;15.69;82.86;101919.22;3609272;39;20293;-60
2022/10/27 01:47:59;;;;;;;9.02;2.70;;;;;;;15.73;83.40;101918.94;3611075;39;20301;-60
2022/10/27 01:50:40;;;;;;;5.85;2.63;;;;;;;15.72;82.38;101922.59;3610619;39;20062;-60
2022/10/27 01:53:06;;;;;;;8.25;3.03;;;;;;;15.68;82.54;101914.78;3610113;39;20054;-60
2022/10/27 01:55:56;;;;;;;8.63;3.03;;;;;;;15.69;82.52;101919.22;3611120;39;20111;-60
2022/10/27 01:58:53;;;;;;;8.55;2.50;;;;;;;15.65;82.07;101910.38;3609603;39;20098;-59
2022/10/27 02:01:43;;;;;;;9.27;2.97;;;;;;;15.63;82.15;101920.44;3610420;39;20095;-60
2022/10/27 02:04:25;;;;;;;5.40;2.70;;;;;;;15.55;82.53;101907.41;3610617;39;20051;-60
2022/10/27 02:07:03;;;;;;;4.70;2.78;;;;;;;15.59;82.62;101910.78;3611067;39;20394;-60
2022/10/27 02:10:13;;;;;;;6.60;2.80;;;;;;;15.58;83.50;101908.19;3612059;39;20412;-60
2022/10/27 02:12:41;;;;;;;6.15;2.80;;;;;;;15.56;82.76;101911.00;3603600;39;20055;-60
2022/10/27 02:15:27;;;;;;;6.95;2.75;;;;;;;15.54;82.14;101921.09;3610089;39;20047;-60
2022/10/27 02:18:07;;;;;;;6.43;3.45;;;;;;;15.52;83.19;101909.47;3609972;39;20055;-60
2022/10/27 02:20:40;;;;;;;6.05;3.10;;;;;;;15.50;83.43;101906.84;3611276;39;20154;-59
2022/10/27 02:23:16;;;;;;;8.93;3.05;;;;;;;15.45;82.62;101895.44;3612808;39;20063;-60
2022/10/27 02:26:20;;;;;;;7.10;3.17;;;;;;;15.41;82.78;101891.16;3607776;39;20441;-60
2022/10/27 02:29:25;;;;;;;4.63;2.90;;;;;;;15.38;83.25;101891.41;3611263;39;20069;-60
2022/10/27 02:31:58;;;;;;;7.10;3.05;;;;;;;15.36;82.96;101893.34;3603277;39;20061;-60
2022/10/27 02:34:26;;;;;;;6.10;3.25;;;;;;;15.33;82.87;101890.81;3612350;39;20054;-59
2022/10/27 02:36:52;;;;;;;7.47;3.03;;;;;;;15.30;83.17;101893.72;3610897;39;20079;-60
2022/10/27 02:39:17;;;;;;;7.95;3.22;;;;;;;15.27;82.45;101899.34;3610154;39;20292;-59
2022/10/27 02:41:43;;;;;;;7.93;3.25;;;;;;;15.22;82.48;101894.22;3608625;39;20064;-59
2022/10/27 02:44:09;;;;;;;7.07;3.30;;;;;;;15.15;81.98;101890.16;3611455;39;20377;-58
2022/10/27 02:46:34;;;;;;;6.65;3.50;;;;;;;15.07;81.93;101887.09;3610246;39;20047;-60
2022/10/27 02:49:00;;;;;;;6.18;3.22;;;;;;;14.96;82.14;101889.59;3611017;39;20139;-59
2022/10/27 02:51:25;;;;;;;6.93;2.70;;;;;;;14.88;82.11;101887.38;3612925;39;20063;-60
2022/10/27 02:53:51;;;;;;;4.35;2.65;;;;;;;14.85;82.68;101885.72;3612358;39;20053;-60
2022/10/27 02:56:16;;;;;;;8.65;3.40;;;;;;;14.81;83.14;101883.28;3610689;39;20047;-60
2022/10/27 02:58:42;;;;;;;5.72;3.17;;;;;;;14.74;82.51;101885.53;3613780;39;20101;-60
2022/10/27 03:01:07;;;;;;;6.82;3.08;;;;;;;14.70;83.05;101883.13;3611876;39;20057;-60
2022/10/27 03:03:33;;;;;;;5.88;2.90;;;;;;;14.66;82.63;101881.56;3612977;39;20059;-60
2022/10/27 03:05:59;;;;;;;9.80;3.50;;;;;;;14.60;82.71;101870.16;3612197;39;20393;-59
2022/10/27 03:08:24;;;;;;;6.60;2.88;;;;;;;14.62;83.35;101870.94;3613068;39;20051;-60
2022/10/27 03:10:50;;;;;;;6.78;3.20;;;;;;;14.59;83.22;101868.41;3612898;39;20297;-60
2022/10/27 03:13:15;;;;;;;6.63;3.08;;;;;;;14.58;83.12;101863.94;3610747;39;20051;-59
2022/10/27 03:15:44;;;;;;;7.97;3.17;;;;;;;14.60;84.54;101856.63;3610913;39;20051;-59
2022/10/27 03:18:10;;;;;;;5.43;3.35;;;;;;;14.63;85.08;101853.72;3613030;39;20047;-59
2022/10/27 03:20:36;;;;;;;6.55;3.25;;;;;;;14.67;85.01;101856.25;3614176;39;20046;-60
2022/10/27 03:23:01;;;;;;;4.68;2.80;;;;;;;14.69;84.61;101859.72;3612553;39;20057;-60
2022/10/27 03:25:27;;;;;;;8.30;3.03;;;;;;;14.72;85.13;101851.41;3612251;39;20054;-60
2022/10/27 03:27:52;;;;;;;7.53;2.50;;;;;;;14.72;84.89;101837.88;3610964;39;20390;-59
2022/10/27 03:30:18;;;;;;;33.20;23.50;;;;;;;14.74;84.90;101844.91;3610168;39;20120;-60
2022/10/27 03:32:47;;;;;;;8.98;5.80;;;;;;;14.76;84.63;101844.84;3613770;39;20383;-60
2022/10/27 03:35:18;;;;;;;9.25;3.83;;;;;;;14.75;84.83;101845.81;3612552;39;20049;-60
2022/10/27 03:37:44;;;;;;;6.95;3.65;;;;;;;14.75;84.37;101851.22;3612176;39;20374;-60
2022/10/27 03:40:10;;;;;;;8.27;3.22;;;;;;;14.74;84.08;101850.34;3611574;39;20065;-59
2022/10/27 03:42:42;;;;;;;6.40;3.08;;;;;;;14.73;84.61;101848.59;3612757;39;20127;-59
2022/10/27 03:45:10;;;;;;;8.90;3.50;;;;;;;14.66;84.40;101843.69;3611834;39;20057;-58
2022/10/27 03:47:35;;;;;;;4.07;2.63;;;;;;;14.69;84.18;101851.63;3612100;39;20495;-58
2022/10/27 03:50:01;;;;;;;7.20;3.47;;;;;;;14.67;84.93;101848.13;3613073;39;20055;-58
2022/10/27 03:52:27;;;;;;;9.57;3.28;;;;;;;14.65;84.88;101848.19;3611113;39;20069;-59
2022/10/27 03:54:52;;;;;;;6.78;2.70;;;;;;;14.63;84.68;101840.19;3612845;39;20047;-59
2022/10/27 03:57:18;;;;;;;7.18;3.35;;;;;;;14.63;84.27;101836.63;3602748;39;20127;-60
2022/10/27 03:59:43;;;;;;;6.10;2.58;;;;;;;14.61;84.99;101836.69;3612489;39;20046;-60
2022/10/27 04:02:09;;;;;;;8.18;2.90;;;;;;;14.60;84.25;101837.69;3610529;39;20047;-60
2022/10/27 04:04:34;;;;;;;6.57;2.95;;;;;;;14.58;84.44;101836.88;3612842;39;20128;-60
2022/10/27 04:07:00;;;;;;;8.13;3.58;;;;;;;14.56;84.83;101843.41;3599391;39;20049;-59
2022/10/27 04:09:26;;;;;;;5.32;2.90;;;;;;;14.56;84.28;101846.97;3612956;39;20058;-59
2022/10/27 04:11:51;;;;;;;7.43;2.85;;;;;;;14.52;84.85;101837.28;3612055;39;20148;-59
2022/10/27 04:14:17;;;;;;;6.85;2.90;;;;;;;14.58;84.03;101854.97;3613258;39;20061;-60
2022/10/27 04:16:42;;;;;;;4.72;2.67;;;;;;;14.56;83.87;101855.09;3612275;39;20373;-60
2022/10/27 04:19:10;;;;;;;3.80;2.75;;;;;;;14.55;84.36;101864.13;3611110;39;20055;-60
2022/10/27 04:21:35;;;;;;;6.22;2.60;;;;;;;14.53;83.52;101857.97;3610151;39;20059;-59
2022/10/27 04:24:01;;;;;;;8.32;3.05;;;;;;;14.56;84.06;101859.63;3613514;39;20053;-60
2022/10/27 04:26:27;;;;;;;6.35;2.97;;;;;;;14.53;83.51;101865.22;3611697;39;20183;-60
2022/10/27 04:28:52;;;;;;;6.72;3.50;;;;;;;14.50;83.40;101866.25;3609863;39;20119;-60
2022/10/27 04:31:18;;;;;;;18.48;11.50;;;;;;;14.48;83.26;101867.31;3608112;39;20058;-60
2022/10/27 04:33:43;;;;;;;21.70;13.40;;;;;;;14.45;83.36;101871.06;3612159;39;20317;-60
2022/10/27 04:36:09;;;;;;;11.93;5.82;;;;;;;14.42;83.63;101864.97;3609745;39;20063;-60
2022/10/27 04:38:34;;;;;;;8.65;4.82;;;;;;;14.38;83.76;101867.00;3611842;39;20043;-60
2022/10/27 04:41:01;;;;;;;7.32;3.08;;;;;;;14.35;83.61;101861.78;3612172;39;20062;-60
2022/10/27 04:43:28;;;;;;;10.73;3.58;;;;;;;14.34;84.52;101868.16;3612429;39;20066;-60
2022/10/27 04:45:53;;;;;;;7.93;3.40;;;;;;;14.32;83.91;101867.38;3608729;39;20058;-59
2022/10/27 04:48:19;;;;;;;11.27;3.40;;;;;;;14.34;84.10;101866.31;3610565;39;20061;-60
2022/10/27 04:50:44;;;;;;;6.82;3.00;;;;;;;14.35;84.24;101868.06;3612573;39;20401;-60
2022/10/27 04:53:10;;;;;;;8.85;3.60;;;;;;;14.37;84.15;101866.13;3610072;39;20055;-60
2022/10/27 04:55:36;;;;;;;6.65;3.40;;;;;;;14.42;83.91;101873.94;3609152;39;20059;-60
2022/10/27 04:58:02;;;;;;;7.38;3.15;;;;;;;14.47;83.52;101871.84;3610855;39;20042;-60
2022/10/27 05:00:28;;;;;;;10.10;3.55;;;;;;;14.45;82.96;101859.38;3607686;39;20058;-60
2022/10/27 05:02:56;;;;;;;8.88;3.20;;;;;;;14.47;83.71;101866.44;3609812;39;20294;-60
2022/10/27 05:05:25;;;;;;;8.60;3.88;;;;;;;14.48;84.07;101876.28;3611520;39;20058;-60
2022/10/27 05:08:00;;;;;;;9.50;3.63;;;;;;;14.48;83.90;101865.47;3612185;39;20058;-60
2022/10/27 05:10:26;;;;;;;7.15;3.85;;;;;;;14.52;84.05;101872.44;3608277;39;20420;-60
2022/10/27 05:12:52;;;;;;;5.63;3.55;;;;;;;14.55;83.23;101863.28;3612439;39;20378;-60
2022/10/27 05:15:17;;;;;;;6.53;3.38;;;;;;;14.58;83.95;101863.94;3609387;39;20085;-59
2022/10/27 05:17:43;;;;;;;6.45;3.58;;;;;;;14.59;83.67;101860.31;3600805;39;20286;-60
2022/10/27 05:20:09;;;;;;;6.28;3.58;;;;;;;14.67;83.08;101872.47;3608843;39;20051;-60
2022/10/27 05:22:37;;;;;;;10.30;3.72;;;;;;;14.69;83.00;101867.84;3604719;39;20059;-60
2022/10/27 05:25:03;;;;;;;6.75;3.65;;;;;;;14.71;83.31;101868.59;3613365;39;20051;-60
2022/10/27 05:27:30;;;;;;;8.52;3.65;;;;;;;14.70;83.05;101861.47;3612201;39;20071;-59
2022/10/27 05:29:56;;;;;;;11.02;3.70;;;;;;;14.74;83.12;101868.41;3611496;39;20058;-59
2022/10/27 05:32:21;;;;;;;7.95;3.70;;;;;;;14.75;82.43;101856.63;3612171;39;20123;-60
2022/10/27 05:34:47;;;;;;;6.88;3.83;;;;;;;14.75;83.21;101860.22;3611496;39;20385;-59
2022/10/27 05:37:12;;;;;;;7.70;3.70;;;;;;;14.75;83.00;101862.06;3613154;39;20051;-59
2022/10/27 05:39:38;;;;;;;8.77;4.25;;;;;;;14.76;82.18;101848.41;3613914;39;20051;-59
2022/10/27 05:42:04;;;;;;;8.35;3.72;;;;;;;14.78;82.27;101853.72;3611376;39;20405;-59
2022/10/27 05:44:29;;;;;;;9.32;3.35;;;;;;;14.78;81.96;101859.13;3612026;39;20724;-60
2022/10/27 05:46:55;;;;;;;8.90;3.88;;;;;;;14.76;82.67;101859.25;3612515;39;20338;-60
2022/10/27 05:49:20;;;;;;;8.77;3.55;;;;;;;14.76;82.33;101852.97;3612291;39;20051;-60
2022/10/27 05:51:49;;;;;;;8.38;3.28;;;;;;;14.67;82.44;101843.56;3612692;39;20130;-60
2022/10/27 05:54:15;;;;;;;8.90;3.60;;;;;;;14.70;81.98;101850.63;3608329;39;20059;-59
2022/10/27 05:56:40;;;;;;;8.52;3.60;;;;;;;14.63;82.60;101842.91;3605521;39;20409;-60
2022/10/27 05:59:06;;;;;;;7.50;3.50;;;;;;;14.69;82.63;101846.19;3606706;39;20050;-58
2022/10/27 06:01:32;;;;;;;5.90;3.47;;;;;;;14.67;82.92;101848.13;3605731;39;20429;-60
2022/10/27 06:03:57;;;;;;;8.80;3.83;;;;;;;14.59;83.06;101827.84;3610096;39;20052;-60
2022/10/27 06:06:23;;;;;;;9.13;3.85;;;;;;;14.70;82.28;101846.09;3608437;39;20051;-60
2022/10/27 06:08:49;;;;;;;8.57;3.95;;;;;;;14.73;82.39;101839.63;3612908;39;20115;-60
2022/10/27 06:11:14;;;;;;;7.18;3.38;;;;;;;14.77;81.79;101842.03;3611792;39;20475;-60
2022/10/27 06:13:40;;;;;;;7.47;3.38;;;;;;;14.81;81.38;101842.69;3612816;39;20051;-60
2022/10/27 06:16:06;;;;;;;7.40;3.47;;;;;;;14.86;81.16;101835.16;3612799;39;20059;-58
2022/10/27 06:18:32;;;;;;;4.45;3.20;;;;;;;14.89;81.71;101839.50;3610484;39;20397;-60
2022/10/27 06:20:57;;;;;;;10.98;3.38;;;;;;;14.91;81.05;101830.34;3612128;39;20088;-60
2022/10/27 06:23:23;;;;;;;6.65;3.25;;;;;;;14.93;80.67;101833.78;3611951;39;20046;-60
2022/10/27 06:25:48;;;;;;;6.53;2.85;;;;;;;14.96;80.09;101840.84;3607620;39;20059;-60
2022/10/27 06:28:14;;;;;;;8.18;3.05;;;;;;;14.98;80.15;101834.38;3613865;39;20055;-60
2022/10/27 06:30:40;;;;;;;6.88;3.17;;;;;;;14.97;79.41;101835.34;3610163;39;20285;-60
2022/10/27 06:33:05;;;;;;;5.70;2.92;;;;;;;14.98;79.06;101833.50;3615038;39;20086;-59
2022/10/27 06:35:31;;;;;;;6.05;3.10;;;;;;;14.95;79.18;101840.00;3612039;39;20069;-59
2022/10/27 06:37:56;;;;;;;8.02;3.10;;;;;;;14.91;79.82;101827.63;3614138;39;20102;-59
2022/10/27 06:40:22;;;;;;;5.57;3.13;;;;;;;14.87;79.46;101823.34;3612790;39;20143;-59
2022/10/27 06:42:52;;;;;;;7.13;3.20;;;;;;;14.85;79.74;101819.91;3611794;39;20050;-58
2022/10/27 06:45:18;;;;;;;6.45;3.20;;;;;;;14.82;79.21;101822.78;3611637;39;20493;-58
2022/10/27 06:47:53;;;;;;;6.85;3.28;;;;;;;14.81;79.60;101821.03;3608291;39;20062;-59
2022/10/27 06:50:19;;;;;;;5.85;2.90;;;;;;;14.80;79.29;101827.44;3613891;39;20124;-60
2022/10/27 06:52:44;;;;;;;7.13;3.15;;;;;;;14.78;79.56;101821.22;3611010;39;20050;-59
2022/10/27 06:55:10;;;;;;;5.35;3.20;;;;;;;14.79;79.51;101820.28;3610803;39;20058;-58
2022/10/27 06:57:42;;;;;;;5.68;2.80;;;;;;;14.80;78.99;101803.06;3613074;39;20159;-59
2022/10/27 07:00:10;;;;;;;7.97;3.25;;;;;;;14.84;78.80;101808.19;3611215;39;20049;-59
2022/10/27 07:02:36;;;;;;;5.95;2.88;;;;;;;14.91;78.24;101816.78;3607620;39;20049;-59
2022/10/27 07:05:03;;;;;;;5.50;3.55;;;;;;;14.82;78.04;101801.13;3613445;39;20050;-59
2022/10/27 07:07:29;;;;;;;5.75;2.95;;;;;;;14.99;78.19;101819.00;3612396;39;20509;-59
2022/10/27 07:09:55;;;;;;;6.72;3.08;;;;;;;14.58;77.93;101739.47;3602847;39;20047;-59
2022/10/27 07:12:20;;;;;;;9.68;3.00;;;;;;;15.08;77.75;101824.69;3612926;39;20047;-59
2022/10/27 07:14:46;;;;;;;6.80;3.10;;;;;;;15.03;76.93;101809.69;3613247;39;20059;-59
2022/10/27 07:17:11;;;;;;;5.43;3.25;;;;;;;15.19;76.79;101833.94;3612587;39;20055;-60
2022/10/27 07:19:37;;;;;;;5.00;2.90;;;;;;;15.24;77.03;101831.81;3613472;39;20051;-59
2022/10/27 07:22:02;;;;;;;4.53;3.00;;;;;;;15.28;76.80;101827.94;3592295;39;20055;-60
2022/10/27 07:24:28;;;;;;;4.80;3.05;;;;;;;15.33;76.28;101836.63;3610077;39;20650;-63
2022/10/27 07:26:54;;;;;;;7.22;3.22;;;;;;;15.40;75.58;101829.84;3611830;39;20168;-60
2022/10/27 07:29:20;;;;;;;6.95;3.13;;;;;;;15.36;75.21;101803.91;3610845;39;20115;-59
2022/10/27 07:31:47;;;;;;;7.50;3.35;;;;;;;15.41;75.12;101776.50;3603318;39;20073;-60
2022/10/27 07:34:12;;;;;;;7.93;3.00;;;;;;;15.78;74.31;101819.16;3613039;39;20058;-59
2022/10/27 07:36:38;;;;;;;4.88;3.10;;;;;;;15.93;74.06;101821.81;3613504;39;20478;-60
2022/10/27 07:39:05;;;;;;;6.13;3.08;;;;;;;16.10;73.46;101826.06;3612596;39;20051;-59
2022/10/27 07:41:31;;;;;;;9.65;3.42;;;;;;;16.23;72.49;101816.09;3609661;39;20127;-59
2022/10/27 07:43:56;;;;;;;3.47;2.40;;;;;;;16.40;72.05;101814.94;3610614;39;20127;-59
2022/10/27 07:46:22;;;;;;;4.32;2.92;;;;;;;16.62;70.68;101815.13;3610399;39;20124;-59
2022/10/27 07:48:47;;;;;;;4.82;2.60;;;;;;;16.81;69.39;101833.72;3608772;39;20097;-60
2022/10/27 07:51:13;;;;;;;8.25;2.78;;;;;;;16.95;68.88;101835.44;3610782;39;20047;-59
2022/10/27 07:53:39;;;;;;;7.38;2.42;;;;;;;17.07;68.37;101839.13;3611986;39;20091;-59
2022/10/27 07:56:05;;;;;;;4.20;2.42;;;;;;;17.13;67.45;101841.38;3607234;39;20059;-59
2022/10/27 07:58:30;;;;;;;4.07;1.75;;;;;;;17.20;67.53;101837.22;3610688;39;20443;-60
2022/10/27 08:00:58;;;;;;;5.07;2.25;;;;;;;17.28;67.04;101845.66;3613899;39;20055;-60
2022/10/27 08:03:28;;;;;;;8.70;2.03;;;;;;;17.28;66.50;101825.78;3610062;39;20048;-60
2022/10/27 08:05:54;;;;;;;4.93;2.10;;;;;;;17.25;66.92;101824.16;3610366;39;20066;-60
2022/10/27 08:08:20;;;;;;;3.97;1.73;;;;;;;17.26;66.61;101825.91;3608998;39;20054;-59
2022/10/27 08:10:49;;;;;;;4.30;2.17;;;;;;;17.09;66.41;101796.38;3611468;39;20062;-59
2022/10/27 08:13:16;;;;;;;3.47;1.90;;;;;;;17.28;66.10;101826.63;3610339;39;20059;-60
2022/10/27 08:15:42;;;;;;;6.10;1.90;;;;;;;17.37;65.88;101828.69;3610824;39;20308;-60
2022/10/27 08:18:10;;;;;;;4.55;2.00;;;;;;;17.48;66.24;101813.44;3608245;39;20119;-59
2022/10/27 08:20:43;;;;;;;5.53;1.90;;;;;;;17.60;64.65;101801.59;3608281;39;20128;-58
2022/10/27 08:23:24;;;;;;;5.90;2.00;;;;;;;17.76;63.93;101807.63;3609491;39;20094;-60
2022/10/27 08:25:51;;;;;;;5.30;1.80;;;;;;;17.78;64.91;101777.63;3609671;39;20139;-60
2022/10/27 08:28:16;;;;;;;4.90;1.77;;;;;;;18.22;63.36;101814.97;3608793;39;20393;-59
2022/10/27 08:30:43;;;;;;;11.80;2.58;;;;;;;18.43;62.04;101812.44;3607340;39;20120;-60
2022/10/27 08:33:10;;;;;;;7.95;2.00;;;;;;;18.66;61.69;101813.31;3609328;39;20353;-59
2022/10/27 08:35:35;;;;;;;4.75;1.80;;;;;;;18.90;61.24;101815.06;3608543;39;20207;-60
2022/10/27 08:38:12;;;;;;;4.78;1.83;;;;;;;19.14;59.54;101821.22;3612019;39;20058;-60
2022/10/27 08:40:50;;;;;;;3.53;1.17;;;;;;;19.37;58.27;101818.47;3610030;39;20058;-60
2022/10/27 08:43:33;;;;;;;2.17;1.00;;;;;;;19.53;58.58;101807.13;3608394;39;20065;-59
2022/10/27 08:46:14;;;;;;;8.07;1.65;;;;;;;19.66;57.03;101807.84;3608721;39;20359;-60
2022/10/27 08:48:44;;;;;;;2.90;1.08;;;;;;;19.76;56.67;101814.28;3609343;39;20123;-60
2022/10/27 08:51:23;;;;;;;2.17;1.35;;;;;;;19.79;56.50;101810.41;3609403;39;20401;-59
2022/10/27 08:53:54;;;;;;;5.75;1.40;;;;;;;19.74;56.54;101802.63;3608853;39;20127;-58
2022/10/27 08:56:27;;;;;;;3.83;1.20;;;;;;;19.85;56.26;101798.97;3598994;39;20067;-58
2022/10/27 08:58:53;;;;;;;;;;;;;;;19.96;56.34;101793.47;3608181;39;20059;-58
2022/10/27 09:01:37;;;;;;;3.50;1.15;;;;;;;20.14;55.05;101783.69;3612303;39;20008;-60
2022/10/27 09:04:53;;;;;;;3.47;1.13;;;;;;;20.28;54.16;101771.56;3612565;39;20103;-60
2022/10/27 09:07:36;;;;;;;3.85;1.20;;;;;;;20.25;54.09;101766.34;3610388;39;20125;-58
2022/10/27 09:10:32;;;;;;;3.78;1.45;;;;;;;20.24;54.00;101774.69;3614313;39;20071;-58
2022/10/27 09:13:22;;;;;;;3.45;1.33;;;;;;;20.31;54.47;101775.88;3604060;39;20047;-58
2022/10/27 09:16:02;;;;;;;5.88;1.45;;;;;;;20.37;54.21;101769.88;3613702;39;20102;-59
2022/10/27 09:18:44;;;;;;;5.50;1.60;;;;;;;20.36;54.04;101779.06;3613010;39;20122;-60
2022/10/27 09:21:21;;;;;;;4.53;1.30;;;;;;;20.39;54.16;101773.31;3612306;39;20042;-60
2022/10/27 09:24:01;;;;;;;3.00;1.33;;;;;;;20.43;54.44;101776.69;3612094;39;20412;-59
2022/10/27 09:26:32;;;;;;;3.45;1.05;;;;;;;20.45;55.21;101767.31;3612764;39;20414;-60
2022/10/27 09:29:09;;;;;;;1.30;0.90;;;;;;;20.48;54.03;101758.84;3613124;39;20091;-60
2022/10/27 09:31:54;;;;;;;4.35;1.30;;;;;;;20.56;54.26;101759.06;3612920;39;20376;-58
2022/10/27 09:34:34;;;;;;;6.95;1.33;;;;;;;20.57;54.05;101766.25;3611289;39;20054;-58
2022/10/27 09:37:00;;;;;;;5.05;1.40;;;;;;;20.63;53.67;101759.41;3613719;39;20047;-57
2022/10/27 09:39:26;;;;;;;4.15;1.30;;;;;;;20.63;54.01;101762.13;3612183;39;20062;-58
2022/10/27 09:41:52;;;;;;;3.70;1.20;;;;;;;20.70;54.70;101762.44;3612981;39;20055;-57
2022/10/27 09:44:25;;;;;;;1.58;1.10;;;;;;;20.78;54.11;101751.69;3605177;39;20042;-60
2022/10/27 09:46:54;;;;;;;2.77;1.20;;;;;;;20.88;53.60;101740.78;3605650;39;20155;-60
2022/10/27 09:49:38;;;;;;;1.73;1.10;;;;;;;20.97;53.08;101739.94;3602855;39;20054;-60
2022/10/27 09:52:11;;;;;;;3.92;1.20;;;;;;;21.21;53.33;101745.00;3613076;39;20499;-60
2022/10/27 09:54:41;;;;;;;5.18;1.25;;;;;;;21.43;52.47;101741.19;3611165;39;20057;-58
2022/10/27 09:57:17;;;;;;;7.90;1.33;;;;;;;21.69;52.67;101755.16;3611261;39;20083;-58
2022/10/27 10:00:00;;;;;;;2.53;1.20;;;;;;;21.74;50.77;101740.03;3613777;39;20053;-58
2022/10/27 10:02:34;;;;;;;2.35;1.17;;;;;;;22.01;50.63;101755.72;3605301;39;20055;-59
2022/10/27 10:05:04;;;;;;;3.15;1.00;;;;;;;22.21;50.46;101752.97;3613708;39;20066;-58
2022/10/27 10:07:40;;;;;;;3.65;1.40;;;;;;;22.41;50.19;101760.09;3615086;39;20138;-58
2022/10/27 10:10:05;;;;;;;3.10;1.10;;;;;;;22.46;49.12;101740.47;3614313;39;20046;-58
2022/10/27 10:12:31;;;;;;;3.13;1.13;;;;;;;22.58;49.43;101727.44;3615655;39;20059;-59
2022/10/27 10:15:09;;;;;;;3.67;1.33;;;;;;;22.79;49.00;101727.19;3613511;39;20054;-59
2022/10/27 10:17:40;;;;;;;5.20;1.20;;;;;;;22.84;48.80;101722.13;3613514;39;20480;-59
2022/10/27 10:20:31;;;;;;;2.70;1.05;;;;;;;22.90;48.75;101719.63;3612646;39;20433;-57
2022/10/27 10:23:00;;;;;;;2.63;1.27;;;;;;;22.84;49.07;101733.94;3615010;39;20047;-58
2022/10/27 10:25:32;;;;;;;4.13;1.25;;;;;;;22.80;48.95;101735.25;3613732;39;20108;-59
2022/10/27 10:28:04;;;;;;;4.78;1.30;;;;;;;22.76;49.24;101728.34;3600757;39;20047;-59
2022/10/27 10:30:38;;;;;;;2.25;1.00;;;;;;;22.67;49.49;101732.00;3612529;39;20047;-59
2022/10/27 10:33:14;;;;;;;5.80;1.30;;;;;;;22.58;49.34;101735.66;3612413;39;20123;-58
2022/10/27 10:35:50;;;;;;;2.95;0.90;;;;;;;22.54;49.50;101726.00;3609990;39;20051;-58
2022/10/27 10:38:38;;;;;;;3.08;1.33;;;;;;;22.52;50.38;101720.69;3610186;39;20074;-58
2022/10/27 10:41:15;;;;;;;2.80;1.35;;;;;;;22.50;49.67;101719.13;3610440;39;20055;-58
2022/10/27 10:43:42;;;;;;;4.60;1.35;;;;;;;22.50;49.81;101708.16;3609765;39;20057;-58
2022/10/27 10:46:24;;;;;;;4.70;1.15;;;;;;;22.39;50.70;101700.97;3609813;39;20111;-58
2022/10/27 10:48:56;;;;;;;4.47;1.17;;;;;;;22.55;50.41;101700.31;3611572;39;20071;-59
2022/10/27 10:51:34;;;;;;;5.40;1.30;;;;;;;22.62;49.49;101702.31;3612399;39;20449;-59
2022/10/27 10:54:08;;;;;;;5.65;1.70;;;;;;;22.71;50.16;101698.66;3614945;39;20087;-61
2022/10/27 10:56:37;;;;;;;4.40;1.30;;;;;;;22.74;49.26;101700.25;3607237;39;20053;-58
2022/10/27 10:59:08;;;;;;;3.42;1.25;;;;;;;22.65;49.83;101706.66;3609769;39;20100;-62
2022/10/27 11:01:50;;;;;;;5.25;1.55;;;;;;;22.55;50.97;101689.38;3611388;39;20061;-59
2022/10/27 11:04:49;;;;;;;2.67;1.50;;;;;;;22.43;50.55;101692.31;3611111;39;20395;-58
2022/10/27 11:07:26;;;;;;;3.92;1.48;;;;;;;22.38;50.50;101700.13;3610328;39;20063;-59
2022/10/27 11:10:12;;;;;;;3.95;1.50;;;;;;;22.38;51.22;101700.13;3610740;39;20116;-59
2022/10/27 11:12:50;;;;;;;4.05;1.45;;;;;;;22.41;51.07;101702.56;3612225;39;20063;-58
2022/10/27 11:15:30;;;;;;;6.05;1.48;;;;;;;22.36;51.38;101702.16;3610736;39;20055;-59
2022/10/27 11:18:25;;;;;;;4.15;1.27;;;;;;;22.30;51.47;101697.28;3610463;39;20063;-59
2022/10/27 11:21:07;;;;;;;4.47;1.30;;;;;;;22.26;51.72;101690.34;3608428;39;20063;-61
2022/10/27 11:23:58;;;;;;;5.45;1.50;;;;;;;22.20;52.06;101685.47;3605639;39;20051;-60
2022/10/27 11:26:37;;;;;;;2.63;1.35;;;;;;;22.13;52.58;101692.53;3610324;39;20069;-59
2022/10/27 11:29:57;;;;;;;7.20;1.30;;;;;;;22.09;53.04;101689.25;3611951;39;20070;-59
2022/10/27 11:32:42;;;;;;;4.38;1.73;;;;;;;22.09;53.13;101688.38;3610222;39;20132;-59
2022/10/27 11:35:34;;;;;;;5.60;1.80;;;;;;;22.24;52.80;101695.13;3608248;39;20067;-60
2022/10/27 11:38:16;;;;;;;5.63;1.67;;;;;;;22.37;53.25;101692.91;3609925;39;20112;-60
2022/10/27 11:41:15;;;;;;;5.75;1.50;;;;;;;22.40;52.67;101681.66;3612299;39;20074;-58
2022/10/27 11:43:51;;;;;;;4.57;1.40;;;;;;;22.34;52.48;101674.03;3607956;39;20054;-58
2022/10/27 11:46:32;;;;;;;4.68;1.45;;;;;;;22.26;52.75;101679.41;3609604;39;20053;-58